sensor_id;sensor_type;location;lat;lon;timestamp;P1;durP1;ratioP1;P2;durP2;ratioP2
22332;SDS011;11334;36.986;-121.936;2023-05-01T00:01:10;8.05;;;3.10;;
22332;SDS011;11334;36.986;-121.936;2023-05-01T00:03:37;9.02;;;3.17;;
22332;SDS011;11334;36.986;-121.936;2023-05-01T00:06:03;8.20;;;2.63;;
22332;SDS011;11334;36.986;-121.936;2023-05-01T00:08:30;11.65;;;3.47;;
22332;SDS011;11334;36.986;-121.936;2023-05-01T00:10:56;6.25;;;2.38;;
22332;SDS011;11334;36.986;-121.936;2023-05-01T00:13:28;14.13;;;3.35;;
22332;SDS011;11334;36.986;-121.936;2023-05-01T00:15:55;10.88;;;4.07;;
22332;SDS011;11334;36.986;-121.936;2023-05-01T00:18:21;7.85;;;2.33;;
22332;SDS011;11334;36.986;-121.936;2023-05-01T00:20:48;10.32;;;3.83;;
22332;SDS011;11334;36.986;-121.936;2023-05-01T00:23:14;8.25;;;3.47;;
22332;SDS011;11334;36.986;-121.936;2023-05-01T00:25:40;8.27;;;3.45;;
22332;SDS011;11334;36.986;-121.936;2023-05-01T00:28:07;8.68;;;2.67;;
22332;SDS011;11334;36.986;-121.936;2023-05-01T00:30:34;9.80;;;3.47;;
22332;SDS011;11334;36.986;-121.936;2023-05-01T00:33:00;8.40;;;3.20;;
22332;SDS011;11334;36.986;-121.936;2023-05-01T00:35:26;12.02;;;3.47;;
22332;SDS011;11334;36.986;-121.936;2023-05-01T00:37:54;10.85;;;3.53;;
22332;SDS011;11334;36.986;-121.936;2023-05-01T00:40:20;15.77;;;3.97;;
22332;SDS011;11334;36.986;-121.936;2023-05-01T00:42:47;10.48;;;3.65;;
22332;SDS011;11334;36.986;-121.936;2023-05-01T00:45:13;12.38;;;4.18;;
22332;SDS011;11334;36.986;-121.936;2023-05-01T00:47:40;93.13;;;12.45;;
22332;SDS011;11334;36.986;-121.936;2023-05-01T00:50:06;12.10;;;3.90;;
22332;SDS011;11334;36.986;-121.936;2023-05-01T00:52:33;11.00;;;4.05;;
22332;SDS011;11334;36.986;-121.936;2023-05-01T00:55:00;10.52;;;3.55;;
22332;SDS011;11334;36.986;-121.936;2023-05-01T00:57:27;12.63;;;3.88;;
22332;SDS011;11334;36.986;-121.936;2023-05-01T00:59:53;8.63;;;3.30;;
22332;SDS011;11334;36.986;-121.936;2023-05-01T01:02:20;11.95;;;3.42;;
22332;SDS011;11334;36.986;-121.936;2023-05-01T01:04:46;11.35;;;3.50;;
22332;SDS011;11334;36.986;-121.936;2023-05-01T01:07:28;14.55;;;3.75;;
22332;SDS011;11334;36.986;-121.936;2023-05-01T01:23:32;8.57;;;3.03;;
22332;SDS011;11334;36.986;-121.936;2023-05-01T01:29:31;10.85;;;3.58;;
22332;SDS011;11334;36.986;-121.936;2023-05-01T01:32:10;11.70;;;3.45;;
22332;SDS011;11334;36.986;-121.936;2023-05-01T01:34:50;13.95;;;3.83;;
22332;SDS011;11334;36.986;-121.936;2023-05-01T01:38:22;10.18;;;3.10;;
22332;SDS011;11334;36.986;-121.936;2023-05-01T01:40:32;9.40;;;2.90;;
22332;SDS011;11334;36.986;-121.936;2023-05-01T01:43:06;10.90;;;3.20;;
22332;SDS011;11334;36.986;-121.936;2023-05-01T01:45:45;11.98;;;3.60;;
22332;SDS011;11334;36.986;-121.936;2023-05-01T01:48:14;14.82;;;3.97;;
22332;SDS011;11334;36.986;-121.936;2023-05-01T01:50:44;10.77;;;3.28;;
22332;SDS011;11334;36.986;-121.936;2023-05-01T01:53:13;11.57;;;3.60;;
22332;SDS011;11334;36.986;-121.936;2023-05-01T01:55:43;10.20;;;3.60;;
22332;SDS011;11334;36.986;-121.936;2023-05-01T01:58:12;8.35;;;3.22;;
22332;SDS011;11334;36.986;-121.936;2023-05-01T02:00:41;10.60;;;3.53;;
22332;SDS011;11334;36.986;-121.936;2023-05-01T02:03:10;11.27;;;3.08;;
22332;SDS011;11334;36.986;-121.936;2023-05-01T02:05:39;8.15;;;3.45;;
22332;SDS011;11334;36.986;-121.936;2023-05-01T02:08:08;14.75;;;3.22;;
22332;SDS011;11334;36.986;-121.936;2023-05-01T02:10:36;11.43;;;3.08;;
22332;SDS011;11334;36.986;-121.936;2023-05-01T02:13:03;10.23;;;3.03;;
22332;SDS011;11334;36.986;-121.936;2023-05-01T02:15:30;10.27;;;3.33;;
22332;SDS011;11334;36.986;-121.936;2023-05-01T02:17:58;8.45;;;3.35;;
22332;SDS011;11334;36.986;-121.936;2023-05-01T02:20:30;10.25;;;3.08;;
22332;SDS011;11334;36.986;-121.936;2023-05-01T02:22:58;8.93;;;3.03;;
22332;SDS011;11334;36.986;-121.936;2023-05-01T02:25:25;11.10;;;3.47;;
22332;SDS011;11334;36.986;-121.936;2023-05-01T02:27:56;12.60;;;3.60;;
22332;SDS011;11334;36.986;-121.936;2023-05-01T02:30:26;10.85;;;3.70;;
22332;SDS011;11334;36.986;-121.936;2023-05-01T02:32:53;13.88;;;3.63;;
22332;SDS011;11334;36.986;-121.936;2023-05-01T02:35:19;14.20;;;3.20;;
22332;SDS011;11334;36.986;-121.936;2023-05-01T02:37:45;11.55;;;3.45;;
22332;SDS011;11334;36.986;-121.936;2023-05-01T02:40:12;12.52;;;3.55;;
22332;SDS011;11334;36.986;-121.936;2023-05-01T02:42:40;11.57;;;3.05;;
22332;SDS011;11334;36.986;-121.936;2023-05-01T02:45:20;9.80;;;3.30;;
22332;SDS011;11334;36.986;-121.936;2023-05-01T02:47:50;12.23;;;3.40;;
22332;SDS011;11334;36.986;-121.936;2023-05-01T02:50:21;14.35;;;3.55;;
22332;SDS011;11334;36.986;-121.936;2023-05-01T02:52:48;10.60;;;2.65;;
22332;SDS011;11334;36.986;-121.936;2023-05-01T02:55:15;11.60;;;3.55;;
22332;SDS011;11334;36.986;-121.936;2023-05-01T02:57:42;13.50;;;3.25;;
22332;SDS011;11334;36.986;-121.936;2023-05-01T03:00:08;12.18;;;3.42;;
22332;SDS011;11334;36.986;-121.936;2023-05-01T03:02:40;13.73;;;3.50;;
22332;SDS011;11334;36.986;-121.936;2023-05-01T03:05:07;12.63;;;3.33;;
22332;SDS011;11334;36.986;-121.936;2023-05-01T03:07:33;11.23;;;3.08;;
22332;SDS011;11334;36.986;-121.936;2023-05-01T03:10:03;11.57;;;3.22;;
22332;SDS011;11334;36.986;-121.936;2023-05-01T03:12:32;11.23;;;3.15;;
22332;SDS011;11334;36.986;-121.936;2023-05-01T03:14:58;11.25;;;3.33;;
22332;SDS011;11334;36.986;-121.936;2023-05-01T03:17:25;14.18;;;3.60;;
22332;SDS011;11334;36.986;-121.936;2023-05-01T03:19:51;17.23;;;3.95;;
22332;SDS011;11334;36.986;-121.936;2023-05-01T03:22:17;11.43;;;3.28;;
22332;SDS011;11334;36.986;-121.936;2023-05-01T03:24:44;13.27;;;3.20;;
22332;SDS011;11334;36.986;-121.936;2023-05-01T03:27:12;12.15;;;3.05;;
22332;SDS011;11334;36.986;-121.936;2023-05-01T03:29:38;13.57;;;3.50;;
22332;SDS011;11334;36.986;-121.936;2023-05-01T03:32:04;11.65;;;3.72;;
22332;SDS011;11334;36.986;-121.936;2023-05-01T03:34:31;10.57;;;2.70;;
22332;SDS011;11334;36.986;-121.936;2023-05-01T03:36:58;9.90;;;3.20;;
22332;SDS011;11334;36.986;-121.936;2023-05-01T03:39:24;9.95;;;3.00;;
22332;SDS011;11334;36.986;-121.936;2023-05-01T03:41:51;8.75;;;2.83;;
22332;SDS011;11334;36.986;-121.936;2023-05-01T03:44:17;6.55;;;2.45;;
22332;SDS011;11334;36.986;-121.936;2023-05-01T03:46:43;16.08;;;3.30;;
22332;SDS011;11334;36.986;-121.936;2023-05-01T03:49:09;12.27;;;3.47;;
22332;SDS011;11334;36.986;-121.936;2023-05-01T03:51:36;12.73;;;3.65;;
22332;SDS011;11334;36.986;-121.936;2023-05-01T03:54:03;9.77;;;2.83;;
22332;SDS011;11334;36.986;-121.936;2023-05-01T03:56:29;13.75;;;3.72;;
22332;SDS011;11334;36.986;-121.936;2023-05-01T03:58:59;11.18;;;3.00;;
22332;SDS011;11334;36.986;-121.936;2023-05-01T04:01:26;16.52;;;2.80;;
22332;SDS011;11334;36.986;-121.936;2023-05-01T04:03:52;11.13;;;3.30;;
22332;SDS011;11334;36.986;-121.936;2023-05-01T04:06:18;8.38;;;2.70;;
22332;SDS011;11334;36.986;-121.936;2023-05-01T04:08:45;11.63;;;2.92;;
22332;SDS011;11334;36.986;-121.936;2023-05-01T04:11:11;12.23;;;3.22;;
22332;SDS011;11334;36.986;-121.936;2023-05-01T04:13:37;13.38;;;4.05;;
22332;SDS011;11334;36.986;-121.936;2023-05-01T04:16:03;10.63;;;3.20;;
22332;SDS011;11334;36.986;-121.936;2023-05-01T04:18:30;9.30;;;2.72;;
22332;SDS011;11334;36.986;-121.936;2023-05-01T04:20:56;14.88;;;3.30;;
22332;SDS011;11334;36.986;-121.936;2023-05-01T04:23:22;9.13;;;2.67;;
22332;SDS011;11334;36.986;-121.936;2023-05-01T04:25:49;11.15;;;2.83;;
22332;SDS011;11334;36.986;-121.936;2023-05-01T04:28:15;11.30;;;3.20;;
22332;SDS011;11334;36.986;-121.936;2023-05-01T04:30:41;9.27;;;2.35;;
22332;SDS011;11334;36.986;-121.936;2023-05-01T04:33:07;11.27;;;2.65;;
22332;SDS011;11334;36.986;-121.936;2023-05-01T04:35:37;10.43;;;2.80;;
22332;SDS011;11334;36.986;-121.936;2023-05-01T04:38:07;9.55;;;2.88;;
22332;SDS011;11334;36.986;-121.936;2023-05-01T04:40:36;10.43;;;2.63;;
22332;SDS011;11334;36.986;-121.936;2023-05-01T04:43:02;8.63;;;2.50;;
22332;SDS011;11334;36.986;-121.936;2023-05-01T04:45:29;12.60;;;3.55;;
22332;SDS011;11334;36.986;-121.936;2023-05-01T04:47:56;12.18;;;3.20;;
22332;SDS011;11334;36.986;-121.936;2023-05-01T04:50:22;9.40;;;2.55;;
22332;SDS011;11334;36.986;-121.936;2023-05-01T04:52:48;4.90;;;2.05;;
22332;SDS011;11334;36.986;-121.936;2023-05-01T04:55:15;9.65;;;2.17;;
22332;SDS011;11334;36.986;-121.936;2023-05-01T04:57:41;9.75;;;2.42;;
22332;SDS011;11334;36.986;-121.936;2023-05-01T05:00:07;12.27;;;2.85;;
22332;SDS011;11334;36.986;-121.936;2023-05-01T05:02:34;8.93;;;2.35;;
22332;SDS011;11334;36.986;-121.936;2023-05-01T05:05:01;15.40;;;3.25;;
22332;SDS011;11334;36.986;-121.936;2023-05-01T05:07:27;6.65;;;1.70;;
22332;SDS011;11334;36.986;-121.936;2023-05-01T05:09:53;11.55;;;2.97;;
22332;SDS011;11334;36.986;-121.936;2023-05-01T05:12:20;7.40;;;2.20;;
22332;SDS011;11334;36.986;-121.936;2023-05-01T05:14:46;8.30;;;2.15;;
22332;SDS011;11334;36.986;-121.936;2023-05-01T05:17:12;8.88;;;2.50;;
22332;SDS011;11334;36.986;-121.936;2023-05-01T05:19:38;8.55;;;2.55;;
22332;SDS011;11334;36.986;-121.936;2023-05-01T05:22:05;8.93;;;2.67;;
22332;SDS011;11334;36.986;-121.936;2023-05-01T05:24:31;9.90;;;2.72;;
22332;SDS011;11334;36.986;-121.936;2023-05-01T05:26:58;11.48;;;2.75;;
22332;SDS011;11334;36.986;-121.936;2023-05-01T05:29:24;8.00;;;2.33;;
22332;SDS011;11334;36.986;-121.936;2023-05-01T05:31:50;9.65;;;2.70;;
22332;SDS011;11334;36.986;-121.936;2023-05-01T05:34:16;8.40;;;2.20;;
22332;SDS011;11334;36.986;-121.936;2023-05-01T05:36:43;15.05;;;2.60;;
22332;SDS011;11334;36.986;-121.936;2023-05-01T05:39:09;9.02;;;2.30;;
22332;SDS011;11334;36.986;-121.936;2023-05-01T05:41:37;9.10;;;2.55;;
22332;SDS011;11334;36.986;-121.936;2023-05-01T05:44:03;9.00;;;2.45;;
22332;SDS011;11334;36.986;-121.936;2023-05-01T05:46:29;8.43;;;2.63;;
22332;SDS011;11334;36.986;-121.936;2023-05-01T05:48:55;6.18;;;2.10;;
22332;SDS011;11334;36.986;-121.936;2023-05-01T05:51:22;7.45;;;2.30;;
22332;SDS011;11334;36.986;-121.936;2023-05-01T05:53:48;11.15;;;3.05;;
22332;SDS011;11334;36.986;-121.936;2023-05-01T05:56:14;9.07;;;2.42;;
22332;SDS011;11334;36.986;-121.936;2023-05-01T05:58:40;7.97;;;2.13;;
22332;SDS011;11334;36.986;-121.936;2023-05-01T06:01:07;8.05;;;2.10;;
22332;SDS011;11334;36.986;-121.936;2023-05-01T06:03:33;7.90;;;2.50;;
22332;SDS011;11334;36.986;-121.936;2023-05-01T06:06:01;7.65;;;1.80;;
22332;SDS011;11334;36.986;-121.936;2023-05-01T06:08:27;6.97;;;1.92;;
22332;SDS011;11334;36.986;-121.936;2023-05-01T06:10:54;4.95;;;1.77;;
22332;SDS011;11334;36.986;-121.936;2023-05-01T06:13:20;8.52;;;1.90;;
22332;SDS011;11334;36.986;-121.936;2023-05-01T06:15:47;10.45;;;2.28;;
22332;SDS011;11334;36.986;-121.936;2023-05-01T06:18:13;7.70;;;1.90;;
22332;SDS011;11334;36.986;-121.936;2023-05-01T06:20:39;7.28;;;1.98;;
22332;SDS011;11334;36.986;-121.936;2023-05-01T06:23:09;8.00;;;2.13;;
22332;SDS011;11334;36.986;-121.936;2023-05-01T06:25:37;4.55;;;1.50;;
22332;SDS011;11334;36.986;-121.936;2023-05-01T06:28:04;8.63;;;2.22;;
22332;SDS011;11334;36.986;-121.936;2023-05-01T06:30:30;4.38;;;1.70;;
22332;SDS011;11334;36.986;-121.936;2023-05-01T06:32:56;11.32;;;2.30;;
22332;SDS011;11334;36.986;-121.936;2023-05-01T06:35:23;9.13;;;2.15;;
22332;SDS011;11334;36.986;-121.936;2023-05-01T06:37:49;9.45;;;2.03;;
22332;SDS011;11334;36.986;-121.936;2023-05-01T06:40:15;8.68;;;1.80;;
22332;SDS011;11334;36.986;-121.936;2023-05-01T06:42:42;3.65;;;1.55;;
22332;SDS011;11334;36.986;-121.936;2023-05-01T06:45:08;8.43;;;1.70;;
22332;SDS011;11334;36.986;-121.936;2023-05-01T06:47:34;5.82;;;1.75;;
22332;SDS011;11334;36.986;-121.936;2023-05-01T06:50:01;7.32;;;1.50;;
22332;SDS011;11334;36.986;-121.936;2023-05-01T06:52:28;7.65;;;1.45;;
22332;SDS011;11334;36.986;-121.936;2023-05-01T06:54:55;6.93;;;1.70;;
22332;SDS011;11334;36.986;-121.936;2023-05-01T06:57:21;6.93;;;1.73;;
22332;SDS011;11334;36.986;-121.936;2023-05-01T06:59:47;7.65;;;1.45;;
22332;SDS011;11334;36.986;-121.936;2023-05-01T07:02:14;4.85;;;1.70;;
22332;SDS011;11334;36.986;-121.936;2023-05-01T07:04:40;7.75;;;1.70;;
22332;SDS011;11334;36.986;-121.936;2023-05-01T07:07:08;7.25;;;1.48;;
22332;SDS011;11334;36.986;-121.936;2023-05-01T07:09:35;3.53;;;0.98;;
22332;SDS011;11334;36.986;-121.936;2023-05-01T07:12:01;5.20;;;1.30;;
22332;SDS011;11334;36.986;-121.936;2023-05-01T07:14:27;6.95;;;1.50;;
22332;SDS011;11334;36.986;-121.936;2023-05-01T07:16:54;4.97;;;1.63;;
22332;SDS011;11334;36.986;-121.936;2023-05-01T07:19:20;5.88;;;1.50;;
22332;SDS011;11334;36.986;-121.936;2023-05-01T07:21:46;8.05;;;1.52;;
22332;SDS011;11334;36.986;-121.936;2023-05-01T07:24:13;5.65;;;1.42;;
22332;SDS011;11334;36.986;-121.936;2023-05-01T07:26:39;5.35;;;1.92;;
22332;SDS011;11334;36.986;-121.936;2023-05-01T07:29:05;5.13;;;1.38;;
22332;SDS011;11334;36.986;-121.936;2023-05-01T07:31:31;8.68;;;2.08;;
22332;SDS011;11334;36.986;-121.936;2023-05-01T07:33:57;4.88;;;1.20;;
22332;SDS011;11334;36.986;-121.936;2023-05-01T07:36:25;5.65;;;1.45;;
22332;SDS011;11334;36.986;-121.936;2023-05-01T07:38:51;5.22;;;1.27;;
22332;SDS011;11334;36.986;-121.936;2023-05-01T07:41:17;7.80;;;1.40;;
22332;SDS011;11334;36.986;-121.936;2023-05-01T07:43:43;6.93;;;1.25;;
22332;SDS011;11334;36.986;-121.936;2023-05-01T07:46:10;4.38;;;1.10;;
22332;SDS011;11334;36.986;-121.936;2023-05-01T07:48:36;4.93;;;1.02;;
22332;SDS011;11334;36.986;-121.936;2023-05-01T07:51:03;6.63;;;1.20;;
22332;SDS011;11334;36.986;-121.936;2023-05-01T07:53:29;7.82;;;1.50;;
22332;SDS011;11334;36.986;-121.936;2023-05-01T07:56:05;3.58;;;0.98;;
22332;SDS011;11334;36.986;-121.936;2023-05-01T07:58:33;7.18;;;1.17;;
22332;SDS011;11334;36.986;-121.936;2023-05-01T08:01:03;4.25;;;1.33;;
22332;SDS011;11334;36.986;-121.936;2023-05-01T08:03:30;8.95;;;1.75;;
22332;SDS011;11334;36.986;-121.936;2023-05-01T08:05:57;3.40;;;1.20;;
22332;SDS011;11334;36.986;-121.936;2023-05-01T08:08:23;5.90;;;1.38;;
22332;SDS011;11334;36.986;-121.936;2023-05-01T08:10:50;4.85;;;0.88;;
22332;SDS011;11334;36.986;-121.936;2023-05-01T08:13:17;4.47;;;1.30;;
22332;SDS011;11334;36.986;-121.936;2023-05-01T08:15:46;3.75;;;1.23;;
22332;SDS011;11334;36.986;-121.936;2023-05-01T08:18:13;7.70;;;1.60;;
22332;SDS011;11334;36.986;-121.936;2023-05-01T08:20:44;2.80;;;1.20;;
22332;SDS011;11334;36.986;-121.936;2023-05-01T08:23:12;3.92;;;1.10;;
22332;SDS011;11334;36.986;-121.936;2023-05-01T08:25:39;5.70;;;1.45;;
22332;SDS011;11334;36.986;-121.936;2023-05-01T08:28:06;6.38;;;1.63;;
22332;SDS011;11334;36.986;-121.936;2023-05-01T08:30:32;5.65;;;1.20;;
22332;SDS011;11334;36.986;-121.936;2023-05-01T08:32:58;6.28;;;1.50;;
22332;SDS011;11334;36.986;-121.936;2023-05-01T08:35:25;5.93;;;1.38;;
22332;SDS011;11334;36.986;-121.936;2023-05-01T08:37:51;7.07;;;1.23;;
22332;SDS011;11334;36.986;-121.936;2023-05-01T08:40:17;4.20;;;1.13;;
22332;SDS011;11334;36.986;-121.936;2023-05-01T08:42:43;4.45;;;1.27;;
22332;SDS011;11334;36.986;-121.936;2023-05-01T08:45:10;5.30;;;1.63;;
22332;SDS011;11334;36.986;-121.936;2023-05-01T08:47:38;6.60;;;1.73;;
22332;SDS011;11334;36.986;-121.936;2023-05-01T08:50:10;4.07;;;1.20;;
22332;SDS011;11334;36.986;-121.936;2023-05-01T08:52:42;6.90;;;1.70;;
22332;SDS011;11334;36.986;-121.936;2023-05-01T08:55:10;6.07;;;1.77;;
22332;SDS011;11334;36.986;-121.936;2023-05-01T08:57:38;4.85;;;2.03;;
22332;SDS011;11334;36.986;-121.936;2023-05-01T09:00:09;3.42;;;1.33;;
22332;SDS011;11334;36.986;-121.936;2023-05-01T09:02:44;7.18;;;1.52;;
22332;SDS011;11334;36.986;-121.936;2023-05-01T09:05:13;6.43;;;1.45;;
22332;SDS011;11334;36.986;-121.936;2023-05-01T09:07:41;3.33;;;1.10;;
22332;SDS011;11334;36.986;-121.936;2023-05-01T09:10:10;2.50;;;1.33;;
22332;SDS011;11334;36.986;-121.936;2023-05-01T09:12:38;5.35;;;1.15;;
22332;SDS011;11334;36.986;-121.936;2023-05-01T09:15:06;3.13;;;1.00;;
22332;SDS011;11334;36.986;-121.936;2023-05-01T09:17:34;5.90;;;1.30;;
22332;SDS011;11334;36.986;-121.936;2023-05-01T09:20:01;4.15;;;1.05;;
22332;SDS011;11334;36.986;-121.936;2023-05-01T09:22:32;3.50;;;1.38;;
22332;SDS011;11334;36.986;-121.936;2023-05-01T09:25:00;4.45;;;1.15;;
22332;SDS011;11334;36.986;-121.936;2023-05-01T09:27:28;5.43;;;1.00;;
22332;SDS011;11334;36.986;-121.936;2023-05-01T09:30:02;4.70;;;1.05;;
22332;SDS011;11334;36.986;-121.936;2023-05-01T09:32:31;3.35;;;1.10;;
22332;SDS011;11334;36.986;-121.936;2023-05-01T09:35:13;5.13;;;1.38;;
22332;SDS011;11334;36.986;-121.936;2023-05-01T09:37:41;5.15;;;1.23;;
22332;SDS011;11334;36.986;-121.936;2023-05-01T09:40:13;2.92;;;0.90;;
22332;SDS011;11334;36.986;-121.936;2023-05-01T09:42:40;2.55;;;1.15;;
22332;SDS011;11334;36.986;-121.936;2023-05-01T09:45:18;2.40;;;1.02;;
22332;SDS011;11334;36.986;-121.936;2023-05-01T09:47:45;4.68;;;1.50;;
22332;SDS011;11334;36.986;-121.936;2023-05-01T09:52:57;4.18;;;1.20;;
22332;SDS011;11334;36.986;-121.936;2023-05-01T09:55:26;6.65;;;1.40;;
22332;SDS011;11334;36.986;-121.936;2023-05-01T09:57:52;4.68;;;1.00;;
22332;SDS011;11334;36.986;-121.936;2023-05-01T10:00:18;4.10;;;1.05;;
22332;SDS011;11334;36.986;-121.936;2023-05-01T10:02:48;4.70;;;1.00;;
22332;SDS011;11334;36.986;-121.936;2023-05-01T10:05:17;5.47;;;1.20;;
22332;SDS011;11334;36.986;-121.936;2023-05-01T10:07:57;5.15;;;0.90;;
22332;SDS011;11334;36.986;-121.936;2023-05-01T10:10:30;7.32;;;0.90;;
22332;SDS011;11334;36.986;-121.936;2023-05-01T10:12:57;1.85;;;0.80;;
22332;SDS011;11334;36.986;-121.936;2023-05-01T10:15:41;2.13;;;0.80;;
22332;SDS011;11334;36.986;-121.936;2023-05-01T10:18:08;3.22;;;0.90;;
22332;SDS011;11334;36.986;-121.936;2023-05-01T10:20:36;2.88;;;0.98;;
22332;SDS011;11334;36.986;-121.936;2023-05-01T10:23:02;2.47;;;0.80;;
22332;SDS011;11334;36.986;-121.936;2023-05-01T10:25:28;2.70;;;0.82;;
22332;SDS011;11334;36.986;-121.936;2023-05-01T10:27:58;3.55;;;0.93;;
22332;SDS011;11334;36.986;-121.936;2023-05-01T10:30:29;2.58;;;1.00;;
22332;SDS011;11334;36.986;-121.936;2023-05-01T10:32:56;2.92;;;0.60;;
22332;SDS011;11334;36.986;-121.936;2023-05-01T10:35:25;3.42;;;1.10;;
22332;SDS011;11334;36.986;-121.936;2023-05-01T10:37:58;2.72;;;0.70;;
22332;SDS011;11334;36.986;-121.936;2023-05-01T10:43:22;5.05;;;1.10;;
22332;SDS011;11334;36.986;-121.936;2023-05-01T10:45:53;2.55;;;0.98;;
22332;SDS011;11334;36.986;-121.936;2023-05-01T10:53:40;5.00;;;1.33;;
22332;SDS011;11334;36.986;-121.936;2023-05-01T11:03:57;4.15;;;1.33;;
22332;SDS011;11334;36.986;-121.936;2023-05-01T11:06:25;3.63;;;1.33;;
22332;SDS011;11334;36.986;-121.936;2023-05-01T11:08:51;4.18;;;0.90;;
22332;SDS011;11334;36.986;-121.936;2023-05-01T11:14:03;5.00;;;0.80;;
22332;SDS011;11334;36.986;-121.936;2023-05-01T11:19:10;2.67;;;0.85;;
22332;SDS011;11334;36.986;-121.936;2023-05-01T11:21:36;3.00;;;0.80;;
22332;SDS011;11334;36.986;-121.936;2023-05-01T11:24:06;2.17;;;0.50;;
22332;SDS011;11334;36.986;-121.936;2023-05-01T11:26:36;3.67;;;0.98;;
22332;SDS011;11334;36.986;-121.936;2023-05-01T11:29:04;3.35;;;0.90;;
22332;SDS011;11334;36.986;-121.936;2023-05-01T11:31:31;1.45;;;0.52;;
22332;SDS011;11334;36.986;-121.936;2023-05-01T11:33:58;2.10;;;0.65;;
22332;SDS011;11334;36.986;-121.936;2023-05-01T11:36:25;2.38;;;0.75;;
22332;SDS011;11334;36.986;-121.936;2023-05-01T11:38:56;3.05;;;0.73;;
22332;SDS011;11334;36.986;-121.936;2023-05-01T11:41:26;2.38;;;0.75;;
22332;SDS011;11334;36.986;-121.936;2023-05-01T11:43:53;4.80;;;1.00;;
22332;SDS011;11334;36.986;-121.936;2023-05-01T11:46:24;3.70;;;1.08;;
22332;SDS011;11334;36.986;-121.936;2023-05-01T11:48:55;4.93;;;1.05;;
22332;SDS011;11334;36.986;-121.936;2023-05-01T11:51:22;1.20;;;0.60;;
22332;SDS011;11334;36.986;-121.936;2023-05-01T11:56:25;3.08;;;0.60;;
22332;SDS011;11334;36.986;-121.936;2023-05-01T11:58:52;5.68;;;1.00;;
22332;SDS011;11334;36.986;-121.936;2023-05-01T12:01:19;2.10;;;0.80;;
22332;SDS011;11334;36.986;-121.936;2023-05-01T12:03:46;3.90;;;1.58;;
22332;SDS011;11334;36.986;-121.936;2023-05-01T12:06:13;10.52;;;1.13;;
22332;SDS011;11334;36.986;-121.936;2023-05-01T12:08:43;4.07;;;0.80;;
22332;SDS011;11334;36.986;-121.936;2023-05-01T12:11:14;6.53;;;0.90;;
22332;SDS011;11334;36.986;-121.936;2023-05-01T12:13:41;2.53;;;0.85;;
22332;SDS011;11334;36.986;-121.936;2023-05-01T12:16:08;4.05;;;0.90;;
22332;SDS011;11334;36.986;-121.936;2023-05-01T12:18:35;7.45;;;0.88;;
22332;SDS011;11334;36.986;-121.936;2023-05-01T12:21:02;3.15;;;1.02;;
22332;SDS011;11334;36.986;-121.936;2023-05-01T12:23:32;2.15;;;0.50;;
22332;SDS011;11334;36.986;-121.936;2023-05-01T12:26:20;2.47;;;0.82;;
22332;SDS011;11334;36.986;-121.936;2023-05-01T12:31:29;3.17;;;0.65;;
22332;SDS011;11334;36.986;-121.936;2023-05-01T12:33:56;2.53;;;0.93;;
22332;SDS011;11334;36.986;-121.936;2023-05-01T12:36:28;1.95;;;0.75;;
22332;SDS011;11334;36.986;-121.936;2023-05-01T12:39:06;2.08;;;0.90;;
22332;SDS011;11334;36.986;-121.936;2023-05-01T12:41:44;2.92;;;0.88;;
22332;SDS011;11334;36.986;-121.936;2023-05-01T12:46:45;3.40;;;0.77;;
22332;SDS011;11334;36.986;-121.936;2023-05-01T12:49:18;4.07;;;1.10;;
22332;SDS011;11334;36.986;-121.936;2023-05-01T12:51:45;3.80;;;1.00;;
22332;SDS011;11334;36.986;-121.936;2023-05-01T12:54:22;2.28;;;1.00;;
22332;SDS011;11334;36.986;-121.936;2023-05-01T12:56:49;3.72;;;1.10;;
22332;SDS011;11334;36.986;-121.936;2023-05-01T12:59:25;5.32;;;0.90;;
22332;SDS011;11334;36.986;-121.936;2023-05-01T13:05:03;2.92;;;0.88;;
22332;SDS011;11334;36.986;-121.936;2023-05-01T13:07:34;3.90;;;0.85;;
22332;SDS011;11334;36.986;-121.936;2023-05-01T13:10:02;2.05;;;0.98;;
22332;SDS011;11334;36.986;-121.936;2023-05-01T13:12:30;4.40;;;1.10;;
22332;SDS011;11334;36.986;-121.936;2023-05-01T13:14:57;3.80;;;0.77;;
22332;SDS011;11334;36.986;-121.936;2023-05-01T13:17:25;3.15;;;0.80;;
22332;SDS011;11334;36.986;-121.936;2023-05-01T13:19:55;2.58;;;1.10;;
22332;SDS011;11334;36.986;-121.936;2023-05-01T13:22:32;1.73;;;0.93;;
22332;SDS011;11334;36.986;-121.936;2023-05-01T13:25:00;4.20;;;1.08;;
22332;SDS011;11334;36.986;-121.936;2023-05-01T13:27:51;1.75;;;0.90;;
22332;SDS011;11334;36.986;-121.936;2023-05-01T13:30:18;3.72;;;0.85;;
22332;SDS011;11334;36.986;-121.936;2023-05-01T13:32:56;2.78;;;0.90;;
22332;SDS011;11334;36.986;-121.936;2023-05-01T13:35:23;2.75;;;1.05;;
22332;SDS011;11334;36.986;-121.936;2023-05-01T13:37:50;3.65;;;1.00;;
22332;SDS011;11334;36.986;-121.936;2023-05-01T13:40:17;2.13;;;0.57;;
22332;SDS011;11334;36.986;-121.936;2023-05-01T13:42:44;3.05;;;0.90;;
22332;SDS011;11334;36.986;-121.936;2023-05-01T13:45:13;4.40;;;1.40;;
22332;SDS011;11334;36.986;-121.936;2023-05-01T13:47:45;4.72;;;1.17;;
22332;SDS011;11334;36.986;-121.936;2023-05-01T13:50:13;2.35;;;0.88;;
22332;SDS011;11334;36.986;-121.936;2023-05-01T13:52:42;2.55;;;0.80;;
22332;SDS011;11334;36.986;-121.936;2023-05-01T13:55:12;3.53;;;1.10;;
22332;SDS011;11334;36.986;-121.936;2023-05-01T13:57:39;2.22;;;1.10;;
22332;SDS011;11334;36.986;-121.936;2023-05-01T14:00:06;3.33;;;1.33;;
22332;SDS011;11334;36.986;-121.936;2023-05-01T14:02:36;4.55;;;1.02;;
22332;SDS011;11334;36.986;-121.936;2023-05-01T14:05:09;4.28;;;1.10;;
22332;SDS011;11334;36.986;-121.936;2023-05-01T14:07:54;2.75;;;0.82;;
22332;SDS011;11334;36.986;-121.936;2023-05-01T14:10:22;3.28;;;0.82;;
22332;SDS011;11334;36.986;-121.936;2023-05-01T14:12:57;2.53;;;0.70;;
22332;SDS011;11334;36.986;-121.936;2023-05-01T14:15:24;5.35;;;1.08;;
22332;SDS011;11334;36.986;-121.936;2023-05-01T14:17:51;1.83;;;0.85;;
22332;SDS011;11334;36.986;-121.936;2023-05-01T14:20:17;5.95;;;0.95;;
22332;SDS011;11334;36.986;-121.936;2023-05-01T14:22:44;4.38;;;0.85;;
22332;SDS011;11334;36.986;-121.936;2023-05-01T14:27:52;4.10;;;1.05;;
22332;SDS011;11334;36.986;-121.936;2023-05-01T14:30:24;3.78;;;0.90;;
22332;SDS011;11334;36.986;-121.936;2023-05-01T14:32:51;2.17;;;0.85;;
22332;SDS011;11334;36.986;-121.936;2023-05-01T14:35:22;4.28;;;1.38;;
22332;SDS011;11334;36.986;-121.936;2023-05-01T14:37:49;2.05;;;0.75;;
22332;SDS011;11334;36.986;-121.936;2023-05-01T14:40:16;3.65;;;0.80;;
22332;SDS011;11334;36.986;-121.936;2023-05-01T14:42:47;4.80;;;1.00;;
22332;SDS011;11334;36.986;-121.936;2023-05-01T14:45:13;2.00;;;0.80;;
22332;SDS011;11334;36.986;-121.936;2023-05-01T14:47:44;2.28;;;0.82;;
22332;SDS011;11334;36.986;-121.936;2023-05-01T14:50:11;3.22;;;0.90;;
22332;SDS011;11334;36.986;-121.936;2023-05-01T14:52:44;4.15;;;0.80;;
22332;SDS011;11334;36.986;-121.936;2023-05-01T14:55:10;2.58;;;0.80;;
22332;SDS011;11334;36.986;-121.936;2023-05-01T14:57:37;2.60;;;0.80;;
22332;SDS011;11334;36.986;-121.936;2023-05-01T15:00:03;4.07;;;0.70;;
22332;SDS011;11334;36.986;-121.936;2023-05-01T15:02:31;3.50;;;0.70;;
22332;SDS011;11334;36.986;-121.936;2023-05-01T15:04:57;1.02;;;0.70;;
22332;SDS011;11334;36.986;-121.936;2023-05-01T15:07:24;2.22;;;0.85;;